Time;durP1;ratioP1;P1;durP2;ratioP2;P2;SDS_P1;SDS_P2;PMS_P1;PMS_P2;Temp;Humidity;BMP_temperature;BMP_pressure;BME280_temperature;BME280_humidity;BME280_pressure;Samples;Min_cycle;Max_cycle;Signal;HPM_P1;HPM_P2
2022/11/28 00:02:07;;;;;;;6.00;5.10;;;;;;;-0.14;97.27;100624.40;101809;1296;25252;-69
2022/11/28 00:04:34;;;;;;;8.00;6.10;;;;;;;-0.16;97.08;100629.05;101717;1305;138599;-69
2022/11/28 00:07:01;;;;;;;8.10;6.00;;;;;;;-0.20;97.12;100628.09;101935;1298;22622;-70
2022/11/28 00:09:28;;;;;;;7.20;4.90;;;;;;;-0.22;97.10;100631.10;101677;1301;139059;-67
2022/11/28 00:11:55;;;;;;;7.90;5.60;;;;;;;-0.26;96.95;100631.54;101934;1316;22480;-69
2022/11/28 00:14:21;;;;;;;;;;;;;;;-0.30;96.81;100637.34;101820;1295;24563;-69
2022/11/28 00:16:48;;;;;;;6.40;4.90;;;;;;;-0.29;97.10;100637.45;101745;1298;124133;-69
2022/11/28 00:19:15;;;;;;;5.90;4.50;;;;;;;-0.27;97.30;100639.64;101782;1295;25490;-69
2022/11/28 00:21:42;;;;;;;6.00;4.00;;;;;;;-0.28;96.97;100637.06;101727;1293;138930;-68
2022/11/28 00:24:08;;;;;;;8.20;4.30;;;;;;;-0.31;97.08;100638.36;101889;1300;22479;-69
2022/11/28 00:26:37;;;;;;;7.20;5.00;;;;;;;-0.36;97.10;100638.80;102011;1301;22967;-68
2022/11/28 00:29:04;;;;;;;7.30;6.10;;;;;;;-0.37;96.97;100640.48;106273;1309;137710;-69
2022/11/28 00:31:40;;;;;;;13.10;8.10;;;;;;;-0.36;97.18;100637.90;106359;1298;22339;-69
2022/11/28 00:34:08;;;;;;;7.70;6.00;;;;;;;-0.32;97.19;100637.73;106296;1293;138785;-69
2022/11/28 00:36:35;;;;;;;7.40;5.50;;;;;;;-0.30;97.20;100645.04;106432;1309;23120;-69
2022/11/28 00:39:03;;;;;;;9.00;5.50;;;;;;;-0.29;97.39;100645.64;106318;1293;138868;-69
2022/11/28 00:41:30;;;;;;;6.00;4.50;;;;;;;-0.31;97.24;100646.06;106421;1309;22212;-69
2022/11/28 00:43:56;;;;;;;6.60;4.30;;;;;;;-0.36;97.15;100645.27;106355;1308;22102;-69
2022/11/28 00:46:23;;;;;;;;;;;;;;;-0.32;97.05;100644.73;106338;1293;138426;-69
2022/11/28 00:48:50;;;;;;;4.40;3.70;;;;;;;-0.28;97.37;100646.36;106411;1309;22339;-69
2022/11/28 00:51:19;;;;;;;6.00;4.30;;;;;;;-0.26;97.33;100643.55;106280;1309;138800;-69
2022/11/28 00:53:47;;;;;;;7.30;5.00;;;;;;;-0.27;97.31;100641.45;106400;1309;22323;-69
2022/11/28 00:56:16;;;;;;;7.60;5.00;;;;;;;-0.24;97.54;100643.30;106455;1307;22304;-70
2022/11/28 00:58:42;;;;;;;7.80;4.80;;;;;;;-0.23;97.38;100642.17;106308;1302;138058;-70
2022/11/28 01:01:12;;;;;;;8.30;5.10;;;;;;;-0.22;97.38;100639.39;106408;1309;22233;-69
2022/11/28 01:03:39;;;;;;;7.40;4.30;;;;;;;-0.25;97.12;100640.69;106280;1309;139460;-69
2022/11/28 01:06:06;;;;;;;6.20;3.90;;;;;;;-0.25;97.18;100635.77;106463;1300;22110;-69
2022/11/28 01:08:33;;;;;;;4.30;3.30;;;;;;;-0.25;97.10;100634.63;106437;1309;22177;-69
2022/11/28 01:11:00;;;;;;;4.00;3.30;;;;;;;-0.24;97.23;100636.45;106342;1291;140365;-69
2022/11/28 01:13:27;;;;;;;;;;;;;;;-0.22;97.16;100641.64;106425;1309;22384;-69
2022/11/28 01:15:54;;;;;;;4.70;3.60;;;;;;;-0.20;97.08;100638.40;106362;1309;127105;-69
2022/11/28 01:18:21;;;;;;;7.90;3.40;;;;;;;-0.20;97.02;100641.02;106452;1305;23219;-70
2022/11/28 01:20:47;;;;;;;6.30;3.90;;;;;;;-0.18;97.15;100641.40;106340;1301;138993;-69
2022/11/28 01:23:15;;;;;;;6.00;4.10;;;;;;;-0.16;97.19;100644.09;106435;1308;22325;-69
2022/11/28 01:25:42;;;;;;;5.60;4.10;;;;;;;-0.15;96.97;100643.77;106399;1309;22103;-69
2022/11/28 01:28:09;;;;;;;5.50;4.10;;;;;;;-0.14;97.09;100645.25;106294;1305;140011;-69
2022/11/28 01:30:35;;;;;;;4.70;3.50;;;;;;;-0.13;96.90;100644.11;106432;1309;22160;-69
2022/11/28 01:33:02;;;;;;;4.30;3.50;;;;;;;-0.14;97.05;100641.27;106312;1304;138233;-69
2022/11/28 01:35:29;;;;;;;5.30;3.70;;;;;;;-0.13;96.91;100644.08;106510;1308;22147;-69
2022/11/28 01:37:55;;;;;;;6.50;4.20;;;;;;;-0.13;96.86;100647.09;106425;1293;23152;-69
2022/11/28 01:40:22;;;;;;;4.20;3.40;;;;;;;-0.15;96.63;100643.73;106343;1309;139685;-69
2022/11/28 01:42:49;;;;;;;5.70;4.40;;;;;;;-0.12;96.71;100651.31;106428;1307;22160;-69
2022/11/28 01:45:28;;;;;;;6.80;4.00;;;;;;;-0.12;96.44;100650.71;106310;1302;139408;-69
2022/11/28 01:47:56;;;;;;;5.40;4.30;;;;;;;-0.11;96.46;100650.29;106367;1301;22205;-69
2022/11/28 01:50:23;;;;;;;6.50;4.50;;;;;;;-0.12;96.29;100654.09;106462;1309;22087;-69
2022/11/28 01:52:51;;;;;;;;;;;;;;;-0.11;96.39;100652.45;106299;1309;139124;-69
2022/11/28 01:55:20;;;;;;;6.00;4.00;;;;;;;-0.13;96.17;100653.18;106415;1309;22317;-70
2022/11/28 01:57:47;;;;;;;4.10;3.50;;;;;;;-0.15;96.36;100651.13;106138;1303;139672;-69
2022/11/28 02:00:16;;;;;;;5.20;3.90;;;;;;;-0.16;96.17;100652.13;106412;1309;22203;-69
2022/11/28 02:02:59;;;;;;;8.70;4.00;;;;;;;-0.18;96.07;100651.05;106381;1309;22132;-69
2022/11/28 02:05:26;;;;;;;4.40;3.40;;;;;;;-0.16;96.22;100650.89;106146;1303;22228;-69
2022/11/28 02:07:53;;;;;;;5.60;3.90;;;;;;;-0.17;96.10;100650.05;106408;1309;22659;-70
2022/11/28 02:10:24;;;;;;;;;;;;;;;-0.17;95.95;100651.31;106304;1301;139047;-69
2022/11/28 02:12:58;;;;;;;7.50;4.40;;;;;;;-0.21;95.91;100649.18;106326;1302;23069;-69
2022/11/28 02:15:43;;;;;;;6.60;4.30;;;;;;;-0.26;95.82;100648.61;106312;1309;138624;-69
2022/11/28 02:18:10;;;;;;;8.10;4.40;;;;;;;-0.32;95.67;100649.16;106428;1309;23222;-70
2022/11/28 02:20:59;;;;;;;7.00;4.10;;;;;;;-0.37;95.76;100650.91;106427;1301;22145;-69
2022/11/28 02:23:41;;;;;;;6.00;4.60;;;;;;;-0.40;95.86;100650.12;106449;1302;22143;-70
2022/11/28 02:26:49;;;;;;;9.80;7.00;;;;;;;-0.40;95.88;100647.24;106467;1309;22196;-69
2022/11/28 02:29:45;;;;;;;6.70;4.20;;;;;;;-0.43;95.83;100650.58;106259;1309;138491;-69
2022/11/28 02:32:37;;;;;;;4.90;3.80;;;;;;;-0.43;96.22;100651.31;106322;1307;22164;-70
2022/11/28 02:35:03;;;;;;;5.00;3.50;;;;;;;-0.38;96.59;100655.42;106327;1309;138977;-69
2022/11/28 02:37:35;;;;;;;5.10;3.40;;;;;;;-0.32;96.72;100660.05;106447;1300;22155;-69
2022/11/28 02:40:07;;;;;;;5.40;3.40;;;;;;;-0.26;96.94;100657.98;106281;1309;137994;-69
2022/11/28 02:42:40;;;;;;;6.00;4.10;;;;;;;-0.20;96.92;100658.63;106348;1307;22094;-69
2022/11/28 02:45:13;;;;;;;20.80;9.60;;;;;;;-0.17;97.02;100660.29;106054;1309;138152;-69
2022/11/28 02:47:47;;;;;;;23.60;10.10;;;;;;;-0.17;96.57;100659.46;106420;1309;22215;-70
2022/11/28 02:50:20;;;;;;;35.80;18.60;;;;;;;-0.17;96.40;100662.70;106228;1309;22148;-69
2022/11/28 02:52:52;;;;;;;14.80;9.40;;;;;;;-0.22;96.21;100660.89;106300;1309;138579;-69
2022/11/28 02:55:18;;;;;;;12.60;7.60;;;;;;;-0.27;96.00;100662.88;106448;1309;22117;-69
2022/11/28 02:57:47;;;;;;;7.80;5.40;;;;;;;-0.32;95.97;100660.80;106295;1300;138160;-69
2022/11/28 03:00:42;;;;;;;7.00;4.80;;;;;;;-0.32;96.22;100664.36;106414;1309;22192;-69
2022/11/28 03:03:47;;;;;;;6.20;4.60;;;;;;;-0.33;96.48;100663.92;106292;1300;138540;-69
2022/11/28 03:06:23;;;;;;;6.00;4.00;;;;;;;-0.30;96.88;100663.61;106322;1309;22982;-70
2022/11/28 03:08:56;;;;;;;6.50;4.30;;;;;;;-0.27;96.74;100661.50;106469;1290;22139;-70
2022/11/28 03:11:29;;;;;;;7.00;4.80;;;;;;;-0.24;96.75;100665.42;106450;1307;22169;-69
2022/11/28 03:14:00;;;;;;;5.10;4.60;;;;;;;-0.22;96.74;100667.13;106427;1309;22122;-69
2022/11/28 03:16:29;;;;;;;4.80;4.30;;;;;;;-0.19;96.66;100666.84;106280;1309;140441;-64
2022/11/28 03:19:06;;;;;;;5.50;4.30;;;;;;;-0.18;96.56;100668.41;106378;1309;22867;-64
2022/11/28 03:21:44;;;;;;;7.60;4.50;;;;;;;-0.18;96.60;100672.83;106323;1301;139138;-64
2022/11/28 03:24:21;;;;;;;6.30;4.80;;;;;;;-0.18;96.50;100669.31;106311;1309;23293;-64
2022/11/28 03:26:52;;;;;;;6.20;4.50;;;;;;;-0.20;96.30;100676.06;106219;1301;22223;-65
2022/11/28 03:29:31;;;;;;;6.80;4.40;;;;;;;-0.18;96.54;100681.27;106316;1294;139059;-64
2022/11/28 03:32:07;;;;;;;4.60;3.90;;;;;;;-0.17;96.64;100678.05;106301;1309;22414;-64
2022/11/28 03:34:36;;;;;;;4.50;3.40;;;;;;;-0.14;96.49;100684.86;106209;1309;138579;-64
2022/11/28 03:37:07;;;;;;;6.30;4.10;;;;;;;-0.13;96.25;100689.25;106249;1309;22324;-64
2022/11/28 03:39:39;;;;;;;9.50;4.70;;;;;;;-0.13;96.35;100690.11;106344;1309;140176;-64
2022/11/28 03:42:11;;;;;;;10.50;6.00;;;;;;;-0.12;96.25;100687.58;106363;1306;22319;-64
2022/11/28 03:44:43;;;;;;;11.50;6.70;;;;;;;-0.11;96.06;100685.84;106436;1308;22179;-64
2022/11/28 03:47:10;;;;;;;13.70;7.20;;;;;;;-0.10;96.19;100689.06;106258;1309;140593;-69
2022/11/28 03:49:39;;;;;;;14.30;8.10;;;;;;;-0.07;96.14;100692.06;106431;1306;22139;-69
2022/11/28 03:52:10;;;;;;;18.60;9.90;;;;;;;-0.07;95.99;100690.05;106125;1312;139168;-69
2022/11/28 03:55:12;;;;;;;18.10;10.00;;;;;;;-0.06;96.02;100694.35;106430;1307;22176;-69
2022/11/28 03:57:45;;;;;;;13.70;8.10;;;;;;;-0.04;96.12;100691.48;105645;1314;140954;-69
2022/11/28 04:00:12;;;;;;;13.60;7.50;;;;;;;-0.04;95.71;100695.77;105561;1316;22205;-70
2022/11/28 04:02:47;;;;;;;9.60;6.10;;;;;;;-0.04;95.80;100695.23;105576;1316;22228;-69
2022/11/28 04:05:45;;;;;;;9.20;5.90;;;;;;;-0.05;95.61;100700.52;105591;1314;139654;-69
2022/11/28 04:08:19;;;;;;;9.80;5.90;;;;;;;-0.05;95.48;100699.51;105551;1316;22189;-69
2022/11/28 04:11:07;;;;;;;6.80;4.70;;;;;;;-0.06;95.39;100699.01;105424;1296;138521;-69
2022/11/28 04:13:37;;;;;;;;;;;;;;;-0.06;95.43;100702.55;105677;1314;22431;-70
2022/11/28 04:16:05;;;;;;;10.80;6.40;;;;;;;-0.05;95.42;100705.57;103892;1317;125029;-69
2022/11/28 04:18:58;;;;;;;5.80;4.10;;;;;;;-0.07;95.40;100711.32;101308;1320;26129;-69
2022/11/28 04:21:29;;;;;;;5.20;4.10;;;;;;;-0.11;95.23;100711.59;101169;1322;138735;-68
2022/11/28 04:24:00;;;;;;;6.40;4.30;;;;;;;-0.13;95.27;100707.42;101119;1316;22839;-69
2022/11/28 04:26:33;;;;;;;5.40;3.90;;;;;;;-0.17;95.32;100706.26;101025;1322;22546;-69
2022/11/28 04:29:03;;;;;;;5.10;3.90;;;;;;;-0.27;94.96;100703.08;105099;1320;139157;-69
2022/11/28 04:31:30;;;;;;;5.40;4.20;;;;;;;-0.30;95.19;100709.13;105556;1315;22474;-69
2022/11/28 04:33:58;;;;;;;5.90;4.20;;;;;;;-0.34;95.08;100708.46;105900;1309;139496;-69
2022/11/28 04:36:25;;;;;;;7.10;4.80;;;;;;;-0.36;95.26;100709.29;106367;1309;23413;-69
2022/11/28 04:38:55;;;;;;;7.20;4.90;;;;;;;-0.34;95.46;100710.40;106352;1309;22218;-69
2022/11/28 04:41:42;;;;;;;11.80;6.70;;;;;;;-0.31;95.43;100715.11;106049;1302;22239;-70
2022/11/28 04:44:12;;;;;;;15.80;7.40;;;;;;;-0.29;95.45;100712.91;106413;1294;22223;-69
2022/11/28 04:46:42;;;;;;;18.90;9.30;;;;;;;-0.28;95.47;100709.82;106057;1311;139300;-70
2022/11/28 04:49:08;;;;;;;16.20;8.30;;;;;;;-0.26;95.61;100712.61;106379;1309;22335;-69
2022/11/28 04:51:43;;;;;;;16.60;8.60;;;;;;;-0.25;95.68;100713.92;106390;1306;139953;-69
2022/11/28 04:54:17;;;;;;;20.60;9.10;;;;;;;-0.23;95.69;100713.35;106318;1310;22113;-69
2022/11/28 04:56:46;;;;;;;13.10;6.90;;;;;;;-0.16;96.00;100715.00;106267;1294;22212;-69
2022/11/28 04:59:13;;;;;;;12.70;7.70;;;;;;;-0.13;95.89;100710.60;106166;1309;138192;-69
2022/11/28 05:01:40;;;;;;;10.80;6.60;;;;;;;-0.08;96.00;100714.09;106386;1301;22243;-69
2022/11/28 05:04:07;;;;;;;11.40;6.70;;;;;;;-0.06;95.68;100715.88;106088;1310;138289;-69
2022/11/28 05:06:34;;;;;;;8.30;5.30;;;;;;;-0.07;95.57;100718.28;106317;1309;22131;-69
2022/11/28 05:09:02;;;;;;;10.90;6.70;;;;;;;-0.06;95.56;100721.03;106272;1300;138568;-69
2022/11/28 05:11:29;;;;;;;7.60;5.80;;;;;;;-0.07;95.48;100722.59;106438;1309;22110;-69
2022/11/28 05:13:56;;;;;;;9.70;6.10;;;;;;;-0.05;95.62;100725.70;106439;1308;23016;-69
2022/11/28 05:16:22;;;;;;;18.90;11.70;;;;;;;-0.03;95.41;100726.55;106353;1309;139682;-70
2022/11/28 05:18:49;;;;;;;15.10;9.90;;;;;;;-0.04;95.41;100727.55;106442;1309;22150;-69
2022/11/28 05:21:16;;;;;;;13.00;8.20;;;;;;;-0.02;95.28;100728.63;106320;1301;138493;-69
2022/11/28 05:23:43;;;;;;;12.70;8.00;;;;;;;-0.05;95.13;100726.83;106401;1308;22238;-69
2022/11/28 05:26:18;;;;;;;14.70;9.70;;;;;;;-0.07;95.22;100728.96;106414;1309;23306;-69
2022/11/28 05:28:46;;;;;;;15.60;11.20;;;;;;;-0.08;95.08;100731.39;106304;1307;138378;-69
2022/11/28 05:31:13;;;;;;;13.40;9.80;;;;;;;-0.08;95.28;100733.21;106434;1309;22826;-69
2022/11/28 05:33:40;;;;;;;13.90;10.00;;;;;;;-0.11;94.89;100735.80;106325;1308;138848;-69
2022/11/28 05:36:08;;;;;;;9.30;7.10;;;;;;;-0.14;94.86;100736.45;106443;1309;22124;-69
2022/11/28 05:38:39;;;;;;;10.80;7.40;;;;;;;-0.17;94.92;100745.89;106431;1308;22995;-69
2022/11/28 05:41:06;;;;;;;10.50;7.20;;;;;;;-0.20;94.82;100748.92;106316;1294;138081;-69
2022/11/28 05:43:32;;;;;;;;;;;;;;;-0.20;94.92;100755.04;106432;1309;22331;-69
2022/11/28 05:45:59;;;;;;;8.10;5.70;;;;;;;-0.20;95.17;100752.60;106409;1308;124580;-69
2022/11/28 05:48:26;;;;;;;;;;;;;;;-0.15;95.29;100748.58;106464;1309;22365;-69
2022/11/28 05:50:53;;;;;;;9.80;7.00;;;;;;;-0.11;95.50;100751.14;106429;1309;22848;-69
2022/11/28 05:53:19;;;;;;;11.90;6.50;;;;;;;-0.05;95.59;100749.70;106346;1301;138954;-69
2022/11/28 05:55:46;;;;;;;;;;;;;;;-0.00;95.62;100749.33;106433;1308;22354;-69
2022/11/28 05:58:13;;;;;;;9.00;5.50;;;;;;;0.04;95.80;100751.78;106294;1309;124756;-69
2022/11/28 06:00:39;;;;;;;11.30;6.00;;;;;;;0.05;95.56;100758.45;106457;1300;22133;-69
2022/11/28 06:03:07;;;;;;;12.80;6.60;;;;;;;0.06;95.49;100761.06;106338;1306;138956;-69
2022/11/28 06:05:33;;;;;;;13.20;5.80;;;;;;;0.08;95.33;100765.16;106025;1315;22334;-69
2022/11/28 06:08:12;;;;;;;9.10;6.50;;;;;;;0.07;95.36;100770.02;106374;1309;22230;-69
2022/11/28 06:10:39;;;;;;;10.10;6.20;;;;;;;0.08;95.39;100772.75;106334;1300;137552;-70
2022/11/28 06:13:06;;;;;;;8.10;5.60;;;;;;;0.09;95.14;100774.32;106380;1300;23255;-69
2022/11/28 06:15:33;;;;;;;7.90;5.00;;;;;;;0.10;95.14;100778.45;105587;1308;140774;-69
2022/11/28 06:18:04;;;;;;;9.20;5.50;;;;;;;0.13;95.08;100785.64;106419;1307;22091;-69
2022/11/28 06:20:33;;;;;;;8.50;4.90;;;;;;;0.16;95.23;100784.76;106451;1308;22229;-69
2022/11/28 06:23:00;;;;;;;9.10;5.70;;;;;;;0.17;94.98;100785.09;106369;1294;138299;-69
2022/11/28 06:25:27;;;;;;;8.70;6.20;;;;;;;0.13;94.46;100784.20;106455;1308;22235;-69
2022/11/28 06:27:54;;;;;;;7.90;4.80;;;;;;;0.06;94.42;100782.98;106272;1309;138002;-69
2022/11/28 06:30:20;;;;;;;5.90;4.30;;;;;;;0.06;94.26;100785.35;106451;1308;22122;-70
2022/11/28 06:32:47;;;;;;;6.80;4.40;;;;;;;0.04;94.36;100787.31;106430;1309;22251;-70
2022/11/28 06:35:14;;;;;;;7.50;4.70;;;;;;;0.06;94.50;100791.61;106324;1309;138268;-69
2022/11/28 06:37:41;;;;;;;;;;;;;;;0.08;94.44;100787.21;106437;1308;22423;-69
2022/11/28 06:40:07;;;;;;;7.10;4.20;;;;;;;0.12;94.34;100791.69;106306;1309;125263;-69
2022/11/28 06:42:35;;;;;;;;;;;;;;;0.14;94.48;100792.94;106393;1299;22346;-69
2022/11/28 06:45:05;;;;;;;11.90;7.20;;;;;;;0.14;94.57;100787.86;106310;1300;125941;-69
2022/11/28 06:47:35;;;;;;;9.40;6.10;;;;;;;0.15;94.45;100785.92;106318;1309;22154;-70
2022/11/28 06:50:02;;;;;;;11.30;8.00;;;;;;;0.18;94.34;100781.73;106410;1308;22129;-69
2022/11/28 06:52:28;;;;;;;;;;;;;;;0.20;94.35;100781.81;106286;1302;139127;-69
2022/11/28 06:54:55;;;;;;;12.00;8.20;;;;;;;0.20;94.17;100785.09;106476;1309;22324;-69
2022/11/28 06:57:22;;;;;;;12.80;8.10;;;;;;;0.19;94.10;100782.54;106301;1309;138709;-69
2022/11/28 06:59:49;;;;;;;;;;;;;;;0.18;93.96;100784.40;106461;1308;22477;-69
2022/11/28 07:02:16;;;;;;;13.10;8.20;;;;;;;0.20;94.14;100783.17;106448;1287;22123;-69
2022/11/28 07:04:43;;;;;;;12.10;7.70;;;;;;;0.22;94.21;100783.09;106311;1300;138250;-68
2022/11/28 07:07:09;;;;;;;12.50;8.70;;;;;;;0.23;93.97;100785.15;106430;1309;22251;-70
2022/11/28 07:09:42;;;;;;;16.70;9.50;;;;;;;0.23;94.10;100784.02;106546;1297;138286;-69
2022/11/28 07:12:09;;;;;;;22.30;13.00;;;;;;;0.26;93.91;100778.53;106583;1281;22896;-69
2022/11/28 07:14:37;;;;;;;21.50;12.60;;;;;;;0.29;94.01;100779.08;106630;1294;22896;-69
2022/11/28 07:17:03;;;;;;;18.40;10.30;;;;;;;0.32;93.94;100774.11;106562;1305;138382;-69
2022/11/28 07:19:30;;;;;;;;;;;;;;;0.34;93.98;100766.56;106615;1304;23121;-69
2022/11/28 07:21:57;;;;;;;16.10;9.80;;;;;;;0.36;93.98;100768.75;106488;1291;125696;-69
2022/11/28 07:24:24;;;;;;;14.40;9.40;;;;;;;0.37;93.83;100774.59;106578;1297;22919;-69
2022/11/28 07:26:50;;;;;;;;;;;;;;;0.34;93.49;100780.86;106644;1305;22369;-69
2022/11/28 07:29:17;;;;;;;12.20;7.40;;;;;;;0.33;93.74;100777.64;106532;1298;124083;-69
2022/11/28 07:31:44;;;;;;;14.10;9.10;;;;;;;0.33;93.74;100773.52;106639;1305;22769;-69
2022/11/28 07:34:11;;;;;;;15.00;8.60;;;;;;;0.33;93.66;100773.86;106496;1297;138768;-69
2022/11/28 07:36:38;;;;;;;;;;;;;;;0.33;93.76;100777.05;106694;1305;23085;-69
2022/11/28 07:39:07;;;;;;;17.80;10.40;;;;;;;0.30;93.52;100776.50;106504;1298;126128;-69
2022/11/28 07:41:34;;;;;;;17.40;11.20;;;;;;;0.22;93.47;100777.51;105411;1306;27531;-69
2022/11/28 07:44:01;;;;;;;22.90;13.80;;;;;;;0.23;93.81;100777.44;102274;1313;24247;-69
2022/11/28 07:46:29;;;;;;;25.40;15.50;;;;;;;0.26;93.80;100781.45;102204;1313;137918;-69
2022/11/28 07:48:56;;;;;;;26.80;15.90;;;;;;;0.28;93.84;100780.08;106591;1297;22134;-70
2022/11/28 07:51:24;;;;;;;25.10;14.70;;;;;;;0.31;93.88;100777.59;106505;1305;139733;-69
2022/11/28 07:53:51;;;;;;;23.70;14.20;;;;;;;0.33;93.93;100783.34;106596;1297;22128;-70
2022/11/28 07:56:20;;;;;;;22.30;12.20;;;;;;;0.35;93.95;100787.94;106634;1287;22109;-70
2022/11/28 07:58:47;;;;;;;24.90;15.00;;;;;;;0.39;93.75;100792.45;106548;1306;138591;-70
2022/11/28 08:01:17;;;;;;;;;;;;;;;0.41;93.75;100795.95;106659;1305;22382;-68
2022/11/28 08:03:43;;;;;;;27.00;16.50;;;;;;;0.43;93.71;100795.56;106494;1296;124170;-68
2022/11/28 08:06:10;;;;;;;;;;;;;;;0.44;93.82;100797.23;106657;1281;23133;-70
2022/11/28 08:08:37;;;;;;;29.60;17.00;;;;;;;0.41;93.74;100792.86;106595;1296;22147;-70
2022/11/28 08:11:05;;;;;;;;;;;;;;;0.44;93.69;100804.02;106527;1290;138100;-69
2022/11/28 08:13:32;;;;;;;31.90;16.90;;;;;;;0.44;93.51;100801.17;106570;1290;22127;-70
2022/11/28 08:16:03;;;;;;;49.80;27.40;;;;;;;0.41;93.61;100794.55;106514;1290;139752;-70
2022/11/28 08:18:30;;;;;;;40.30;19.50;;;;;;;0.44;93.52;100797.73;106575;1296;22248;-70
2022/11/28 08:21:08;;;;;;;105.10;49.90;;;;;;;0.46;93.52;100797.55;106665;1288;22244;-70
2022/11/28 08:23:35;;;;;;;45.90;27.80;;;;;;;0.47;93.39;100794.59;106744;1297;22268;-70
2022/11/28 08:26:02;;;;;;;;;;;;;;;0.48;93.64;100794.46;106602;1288;154395;-70
2022/11/28 08:29:31;;;;;;;103.00;45.00;;;;;;;0.51;93.44;100793.23;99765;1321;545416;-69
2022/11/28 08:31:58;;;;;;;71.30;37.90;;;;;;;0.49;93.48;100790.31;101694;1311;22506;-69
2022/11/28 08:34:25;;;;;;;;;;;;;;;0.45;93.33;100790.98;101278;1308;139220;-70
2022/11/28 08:36:52;;;;;;;45.30;25.30;;;;;;;0.40;93.47;100797.63;101104;1314;22616;-69
2022/11/28 08:39:18;;;;;;;35.60;20.70;;;;;;;0.37;93.45;100798.71;101035;1307;137566;-68
2022/11/28 08:41:52;;;;;;;57.70;28.10;;;;;;;0.32;93.83;100803.20;101101;1322;25429;-70
2022/11/28 08:44:19;;;;;;;47.00;24.10;;;;;;;0.31;93.72;100802.66;105744;1313;254140;-69
2022/11/28 08:46:45;;;;;;;43.60;24.20;;;;;;;0.30;93.86;100798.99;105942;1313;137625;-69
2022/11/28 08:49:12;;;;;;;35.00;18.60;;;;;;;0.32;94.07;100804.34;106070;1312;22149;-70
2022/11/28 08:51:39;;;;;;;35.70;19.10;;;;;;;0.32;93.93;100806.83;105990;1312;138692;-69
2022/11/28 08:54:06;;;;;;;;;;;;;;;0.33;94.06;100804.08;106091;1312;22400;-69
2022/11/28 08:56:32;;;;;;;29.60;18.30;;;;;;;0.33;93.99;100804.24;106085;1312;22271;-69
2022/11/28 08:59:00;;;;;;;32.10;18.80;;;;;;;0.33;94.08;100798.35;106108;1309;139536;-70
2022/11/28 09:01:27;;;;;;;38.30;20.40;;;;;;;0.33;94.14;100795.61;106169;1304;22046;-70
2022/11/28 09:03:54;;;;;;;42.70;22.20;;;;;;;0.36;94.18;100796.60;106014;1302;138254;-69
2022/11/28 09:06:21;;;;;;;44.40;24.00;;;;;;;0.38;94.18;100798.05;106089;1312;22124;-70
2022/11/28 09:08:48;;;;;;;168.30;61.90;;;;;;;0.40;94.09;100799.86;106107;1313;22164;-70
2022/11/28 09:11:16;;;;;;;;;;;;;;;0.42;94.16;100791.43;106013;1312;138285;-71
2022/11/28 09:13:43;;;;;;;35.80;19.60;;;;;;;0.44;94.13;100788.44;106068;1313;22953;-69
2022/11/28 09:16:10;;;;;;;31.90;17.70;;;;;;;0.46;94.03;100786.30;103529;1318;138209;-68
2022/11/28 09:18:37;;;;;;;28.20;16.90;;;;;;;0.47;93.99;100785.61;102253;1306;22574;-69
2022/11/28 09:21:08;;;;;;;31.80;18.50;;;;;;;0.50;93.83;100786.25;102667;1305;25249;-69
2022/11/28 09:23:35;;;;;;;51.60;23.90;;;;;;;0.52;93.79;100787.41;106097;1312;22914;-69
2022/11/28 09:26:19;;;;;;;49.70;24.20;;;;;;;0.50;93.76;100782.64;104343;1306;22650;-69
2022/11/28 09:28:46;;;;;;;40.50;24.70;;;;;;;0.54;93.54;100788.32;101349;1318;138913;-68
2022/11/28 09:31:13;;;;;;;58.60;36.20;;;;;;;0.54;93.38;100790.94;101422;1311;22587;-67
2022/11/28 09:33:40;;;;;;;50.10;30.60;;;;;;;0.55;93.36;100787.50;105919;1312;138929;-70
2022/11/28 09:36:08;;;;;;;;;;;;;;;0.55;93.56;100784.72;105919;1313;22394;-70
2022/11/28 09:38:35;;;;;;;78.80;42.90;;;;;;;0.58;93.56;100786.24;105954;1313;22123;-70
2022/11/28 09:41:01;;;;;;;50.00;26.30;;;;;;;0.59;93.50;100787.89;105892;1306;137931;-70
2022/11/28 09:43:41;;;;;;;72.80;36.70;;;;;;;0.59;93.40;100786.11;105883;1300;22238;-70
2022/11/28 09:46:11;;;;;;;75.50;36.70;;;;;;;0.59;93.46;100784.48;105700;1310;137923;-70
2022/11/28 09:48:44;;;;;;;64.30;33.50;;;;;;;0.60;93.41;100785.08;105831;1300;22251;-70
2022/11/28 09:51:27;;;;;;;50.40;28.00;;;;;;;0.61;93.30;100783.91;105499;1315;139960;-70
2022/11/28 09:54:06;;;;;;;60.40;31.90;;;;;;;0.61;93.31;100782.13;105933;1313;22154;-70
2022/11/28 16:17:48;;;;;;;37.90;23.30;;;;;;;-0.16;100.00;100825.66;99885;1310;557621;-57
2022/11/28 16:20:48;;;;;;;;;;;;;;;-0.04;100.00;100825.23;100893;1309;116664;-57
2022/11/28 16:23:19;;;;;;;36.00;22.70;;;;;;;0.02;100.00;100831.05;100467;1316;124779;-57
2022/11/28 16:26:20;;;;;;;38.10;21.80;;;;;;;0.05;100.00;100828.98;104881;1320;23197;-57
2022/11/28 16:29:15;;;;;;;44.00;23.30;;;;;;;0.10;100.00;100831.54;104301;1322;137823;-59
2022/11/28 16:31:42;;;;;;;42.80;23.70;;;;;;;0.11;100.00;100825.31;104409;1330;22276;-57
2022/11/28 16:34:12;;;;;;;40.80;21.90;;;;;;;0.18;100.00;100825.11;104256;1334;137861;-58
2022/11/28 16:36:39;;;;;;;36.40;21.90;;;;;;;0.22;100.00;100826.70;104504;1328;22211;-59
2022/11/28 16:39:09;;;;;;;35.90;20.80;;;;;;;0.24;100.00;100828.30;104425;1330;22393;-58
2022/11/28 16:41:53;;;;;;;36.20;19.60;;;;;;;0.26;100.00;100828.02;104332;1315;138226;-58
2022/11/28 16:44:22;;;;;;;40.90;20.30;;;;;;;0.30;100.00;100829.76;104360;1336;22927;-58
2022/11/28 16:46:53;;;;;;;38.10;22.20;;;;;;;0.33;100.00;100828.73;104357;1321;138990;-60
2022/11/28 16:49:57;;;;;;;34.80;20.90;;;;;;;0.35;100.00;100825.34;104407;1330;23713;-60
2022/11/28 16:52:24;;;;;;;37.70;19.40;;;;;;;0.36;100.00;100824.84;104308;1319;139034;-59
2022/11/28 16:54:54;;;;;;;39.10;23.20;;;;;;;0.37;100.00;100829.54;104483;1333;22161;-59
2022/11/28 16:57:21;;;;;;;37.10;21.60;;;;;;;0.39;100.00;100831.73;104412;1315;22284;-59
2022/11/28 16:59:51;;;;;;;38.90;21.10;;;;;;;0.40;100.00;100836.05;104649;1302;139283;-57
2022/11/28 17:02:22;;;;;;;36.60;22.70;;;;;;;0.42;100.00;100833.20;104881;1306;23136;-60
2022/11/28 17:04:50;;;;;;;40.00;23.50;;;;;;;0.44;100.00;100830.96;105276;1306;139064;-59
2022/11/28 17:07:22;;;;;;;36.20;20.50;;;;;;;0.46;100.00;100827.80;105612;1309;23308;-59
2022/11/28 17:09:49;;;;;;;45.00;25.50;;;;;;;0.46;100.00;100830.41;105582;1306;22257;-59
2022/11/28 17:12:27;;;;;;;32.10;19.60;;;;;;;0.47;100.00;100830.48;105327;1315;138698;-60
2022/11/28 17:14:54;;;;;;;28.80;18.10;;;;;;;0.47;100.00;100826.80;105241;1309;22184;-59
2022/11/28 17:17:22;;;;;;;25.60;16.10;;;;;;;0.46;100.00;100824.88;105459;1307;139140;-59
2022/11/28 17:19:49;;;;;;;28.40;18.30;;;;;;;0.44;100.00;100822.38;105420;1318;22160;-59
2022/11/28 17:22:17;;;;;;;24.50;15.60;;;;;;;0.44;100.00;100827.11;105360;1304;138201;-60
2022/11/28 17:24:44;;;;;;;30.10;18.80;;;;;;;0.44;100.00;100826.05;105474;1310;22937;-59
2022/11/28 17:27:11;;;;;;;;;;;;;;;0.44;100.00;100818.54;105449;1318;22479;-59
2022/11/28 17:29:38;;;;;;;58.10;33.90;;;;;;;0.43;100.00;100821.43;106210;1309;124195;-58
2022/11/28 17:32:04;;;;;;;;;;;;;;;0.42;100.00;100824.95;106178;1310;22398;-58
2022/11/28 17:34:32;;;;;;;41.30;23.50;;;;;;;0.42;100.00;100828.70;106071;1304;124462;-58
2022/11/28 17:36:59;;;;;;;39.40;25.80;;;;;;;0.43;100.00;100827.43;106180;1295;22185;-59
2022/11/28 17:39:26;;;;;;;39.30;21.40;;;;;;;0.43;100.00;100828.46;106317;1309;22120;-58
2022/11/28 17:41:55;;;;;;;37.10;20.50;;;;;;;0.43;100.00;100826.48;106209;1299;139281;-58
2022/11/28 17:44:33;;;;;;;43.70;24.10;;;;;;;0.44;100.00;100828.28;106171;1294;22248;-59
2022/11/28 17:47:00;;;;;;;42.00;22.60;;;;;;;0.45;100.00;100827.65;106052;1310;139008;-59
2022/11/28 17:49:28;;;;;;;41.50;23.10;;;;;;;0.46;100.00;100832.55;106221;1309;22165;-58
2022/11/28 17:51:55;;;;;;;41.20;22.20;;;;;;;0.48;100.00;100828.30;106393;1283;22128;-59
2022/11/28 17:54:23;;;;;;;44.00;24.80;;;;;;;0.49;100.00;100829.42;106244;1299;137739;-59